sensor_id;sensor_type;location;lat;lon;timestamp;temperature;humidity
57088;DHT22;42965;52.846;6.614;2022-08-19T00:01:18;15.70;99.90
57088;DHT22;42965;52.846;6.614;2022-08-19T00:03:44;15.80;99.90
57088;DHT22;42965;52.846;6.614;2022-08-19T00:06:10;15.70;99.90
57088;DHT22;42965;52.846;6.614;2022-08-19T00:08:36;15.80;99.90
57088;DHT22;42965;52.846;6.614;2022-08-19T00:11:03;15.80;99.90
57088;DHT22;42965;52.846;6.614;2022-08-19T00:13:29;15.70;99.90
57088;DHT22;42965;52.846;6.614;2022-08-19T00:15:56;15.70;99.90
57088;DHT22;42965;52.846;6.614;2022-08-19T00:18:22;15.70;99.90
57088;DHT22;42965;52.846;6.614;2022-08-19T08:04:34;26.30;99.90
57088;DHT22;42965;52.846;6.614;2022-08-19T08:07:19;26.20;99.90
57088;DHT22;42965;52.846;6.614;2022-08-19T08:10:07;26.50;99.90
57088;DHT22;42965;52.846;6.614;2022-08-19T08:12:38;26.70;99.90
57088;DHT22;42965;52.846;6.614;2022-08-19T08:15:13;26.90;99.90
57088;DHT22;42965;52.846;6.614;2022-08-19T08:17:45;27.10;99.90
57088;DHT22;42965;52.846;6.614;2022-08-19T08:20:13;27.40;99.90
57088;DHT22;42965;52.846;6.614;2022-08-19T08:22:44;27.50;99.90
57088;DHT22;42965;52.846;6.614;2022-08-19T08:25:29;27.80;99.90
57088;DHT22;42965;52.846;6.614;2022-08-19T08:27:55;27.90;99.90
57088;DHT22;42965;52.846;6.614;2022-08-19T08:30:32;28.10;99.90
57088;DHT22;42965;52.846;6.614;2022-08-19T08:33:00;28.10;99.90
57088;DHT22;42965;52.846;6.614;2022-08-19T08:35:26;28.20;99.90
57088;DHT22;42965;52.846;6.614;2022-08-19T08:37:54;27.90;99.90
57088;DHT22;42965;52.846;6.614;2022-08-19T08:40:38;27.80;99.90
57088;DHT22;42965;52.846;6.614;2022-08-19T08:43:33;28.00;99.90
57088;DHT22;42965;52.846;6.614;2022-08-19T08:46:05;27.90;99.90
57088;DHT22;42965;52.846;6.614;2022-08-19T08:49:02;28.00;99.90
57088;DHT22;42965;52.846;6.614;2022-08-19T08:51:44;28.70;99.90
57088;DHT22;42965;52.846;6.614;2022-08-19T08:54:18;28.80;99.90
57088;DHT22;42965;52.846;6.614;2022-08-19T08:56:51;28.80;99.90
57088;DHT22;42965;52.846;6.614;2022-08-19T08:59:40;28.80;99.90
57088;DHT22;42965;52.846;6.614;2022-08-19T09:02:08;28.90;99.90
57088;DHT22;42965;52.846;6.614;2022-08-19T09:04:36;28.80;99.90
57088;DHT22;42965;52.846;6.614;2022-08-19T09:07:19;29.00;99.90
57088;DHT22;42965;52.846;6.614;2022-08-19T09:09:49;28.50;99.90
57088;DHT22;42965;52.846;6.614;2022-08-19T09:15:32;29.30;98.50
57088;DHT22;42965;52.846;6.614;2022-08-19T09:18:04;29.50;99.10
57088;DHT22;42965;52.846;6.614;2022-08-19T09:20:32;29.70;97.70
57088;DHT22;42965;52.846;6.614;2022-08-19T09:22:58;30.20;96.20
57088;DHT22;42965;52.846;6.614;2022-08-19T09:25:25;30.10;96.30
57088;DHT22;42965;52.846;6.614;2022-08-19T09:27:53;30.20;95.40
57088;DHT22;42965;52.846;6.614;2022-08-19T09:30:33;30.40;94.80
57088;DHT22;42965;52.846;6.614;2022-08-19T09:33:00;30.10;91.40
57088;DHT22;42965;52.846;6.614;2022-08-19T09:35:28;30.20;94.80
57088;DHT22;42965;52.846;6.614;2022-08-19T09:37:56;30.60;91.80
57088;DHT22;42965;52.846;6.614;2022-08-19T09:40:24;30.90;85.30
57088;DHT22;42965;52.846;6.614;2022-08-19T09:42:51;31.00;85.00
57088;DHT22;42965;52.846;6.614;2022-08-19T09:45:20;31.30;83.10
57088;DHT22;42965;52.846;6.614;2022-08-19T09:47:49;30.90;84.50
57088;DHT22;42965;52.846;6.614;2022-08-19T09:50:16;30.60;85.90
57088;DHT22;42965;52.846;6.614;2022-08-19T09:52:47;30.70;88.90
57088;DHT22;42965;52.846;6.614;2022-08-19T09:55:13;30.20;90.80
57088;DHT22;42965;52.846;6.614;2022-08-19T09:57:40;30.30;92.40
57088;DHT22;42965;52.846;6.614;2022-08-19T10:00:08;30.70;90.10
57088;DHT22;42965;52.846;6.614;2022-08-19T10:02:35;30.90;81.90
57088;DHT22;42965;52.846;6.614;2022-08-19T10:05:01;30.90;80.10
57088;DHT22;42965;52.846;6.614;2022-08-19T10:07:46;30.80;85.00
57088;DHT22;42965;52.846;6.614;2022-08-19T10:10:12;31.00;85.00
57088;DHT22;42965;52.846;6.614;2022-08-19T10:12:38;31.60;76.90
57088;DHT22;42965;52.846;6.614;2022-08-19T10:15:06;31.60;73.80
57088;DHT22;42965;52.846;6.614;2022-08-19T10:17:33;31.50;72.90
57088;DHT22;42965;52.846;6.614;2022-08-19T10:20:01;31.70;71.00
57088;DHT22;42965;52.846;6.614;2022-08-19T10:22:30;31.80;72.40
57088;DHT22;42965;52.846;6.614;2022-08-19T10:24:56;31.80;68.00
57088;DHT22;42965;52.846;6.614;2022-08-19T10:27:22;31.40;67.50
57088;DHT22;42965;52.846;6.614;2022-08-19T10:29:49;31.40;68.30
57088;DHT22;42965;52.846;6.614;2022-08-19T10:32:15;31.80;66.40
57088;DHT22;42965;52.846;6.614;2022-08-19T10:34:41;32.00;64.90
57088;DHT22;42965;52.846;6.614;2022-08-19T10:37:07;32.10;63.70
57088;DHT22;42965;52.846;6.614;2022-08-19T10:39:35;31.90;64.70
57088;DHT22;42965;52.846;6.614;2022-08-19T10:42:06;32.30;64.60
57088;DHT22;42965;52.846;6.614;2022-08-19T10:44:33;32.10;65.60
57088;DHT22;42965;52.846;6.614;2022-08-19T10:47:02;32.40;64.50
57088;DHT22;42965;52.846;6.614;2022-08-19T10:49:28;32.70;60.20
57088;DHT22;42965;52.846;6.614;2022-08-19T10:51:58;32.70;58.60
57088;DHT22;42965;52.846;6.614;2022-08-19T10:54:43;33.00;57.20
57088;DHT22;42965;52.846;6.614;2022-08-19T10:57:31;33.10;58.00
57088;DHT22;42965;52.846;6.614;2022-08-19T10:59:57;33.70;57.70
57088;DHT22;42965;52.846;6.614;2022-08-19T11:02:23;33.80;54.10
57088;DHT22;42965;52.846;6.614;2022-08-19T11:04:49;32.80;54.20
57088;DHT22;42965;52.846;6.614;2022-08-19T11:07:17;32.80;53.70
57088;DHT22;42965;52.846;6.614;2022-08-19T11:09:43;32.60;53.60
57088;DHT22;42965;52.846;6.614;2022-08-19T11:12:12;32.60;53.90
57088;DHT22;42965;52.846;6.614;2022-08-19T11:14:39;33.10;53.80
57088;DHT22;42965;52.846;6.614;2022-08-19T11:17:06;33.40;54.50
57088;DHT22;42965;52.846;6.614;2022-08-19T11:19:32;33.70;52.80
57088;DHT22;42965;52.846;6.614;2022-08-19T11:21:59;33.00;53.80
57088;DHT22;42965;52.846;6.614;2022-08-19T11:24:27;32.50;55.70
57088;DHT22;42965;52.846;6.614;2022-08-19T11:26:58;32.30;56.00
57088;DHT22;42965;52.846;6.614;2022-08-19T11:29:26;32.10;56.20
57088;DHT22;42965;52.846;6.614;2022-08-19T11:31:53;31.70;57.50
57088;DHT22;42965;52.846;6.614;2022-08-19T11:34:26;31.30;60.30
57088;DHT22;42965;52.846;6.614;2022-08-19T11:36:55;31.30;60.90
57088;DHT22;42965;52.846;6.614;2022-08-19T11:39:26;31.50;60.30
57088;DHT22;42965;52.846;6.614;2022-08-19T11:41:53;31.80;58.30
57088;DHT22;42965;52.846;6.614;2022-08-19T11:44:19;32.10;57.20
57088;DHT22;42965;52.846;6.614;2022-08-19T11:46:46;32.10;56.60
57088;DHT22;42965;52.846;6.614;2022-08-19T11:49:14;32.80;55.90
57088;DHT22;42965;52.846;6.614;2022-08-19T11:51:41;32.90;54.60
57088;DHT22;42965;52.846;6.614;2022-08-19T11:54:09;32.90;54.60
57088;DHT22;42965;52.846;6.614;2022-08-19T11:56:37;33.20;54.90
57088;DHT22;42965;52.846;6.614;2022-08-19T11:59:03;33.10;54.60
57088;DHT22;42965;52.846;6.614;2022-08-19T12:01:29;33.20;54.10
57088;DHT22;42965;52.846;6.614;2022-08-19T12:03:57;32.80;54.90
57088;DHT22;42965;52.846;6.614;2022-08-19T12:06:29;33.00;55.80
57088;DHT22;42965;52.846;6.614;2022-08-19T12:09:04;33.00;54.90
57088;DHT22;42965;52.846;6.614;2022-08-19T12:11:32;33.00;53.00
57088;DHT22;42965;52.846;6.614;2022-08-19T12:13:58;33.10;54.00
57088;DHT22;42965;52.846;6.614;2022-08-19T12:16:27;32.70;54.50
57088;DHT22;42965;52.846;6.614;2022-08-19T12:18:55;33.20;54.90
57088;DHT22;42965;52.846;6.614;2022-08-19T12:21:26;33.00;55.00
57088;DHT22;42965;52.846;6.614;2022-08-19T12:23:56;32.70;54.10
57088;DHT22;42965;52.846;6.614;2022-08-19T12:26:23;32.50;53.90
57088;DHT22;42965;52.846;6.614;2022-08-19T12:28:50;32.40;54.50
57088;DHT22;42965;52.846;6.614;2022-08-19T12:31:16;32.00;54.40
57088;DHT22;42965;52.846;6.614;2022-08-19T12:33:43;32.10;54.50
57088;DHT22;42965;52.846;6.614;2022-08-19T12:36:13;31.70;54.60
57088;DHT22;42965;52.846;6.614;2022-08-19T12:38:40;31.70;53.60
57088;DHT22;42965;52.846;6.614;2022-08-19T12:41:10;31.60;53.30
57088;DHT22;42965;52.846;6.614;2022-08-19T12:43:38;31.70;53.50
57088;DHT22;42965;52.846;6.614;2022-08-19T12:46:07;31.60;52.20
57088;DHT22;42965;52.846;6.614;2022-08-19T12:48:34;31.60;51.70
57088;DHT22;42965;52.846;6.614;2022-08-19T12:54:34;31.90;50.50
57088;DHT22;42965;52.846;6.614;2022-08-19T12:57:05;32.20;51.60
57088;DHT22;42965;52.846;6.614;2022-08-19T12:59:31;32.10;51.30
57088;DHT22;42965;52.846;6.614;2022-08-19T13:01:57;32.20;50.60
57088;DHT22;42965;52.846;6.614;2022-08-19T13:04:24;32.80;50.90
57088;DHT22;42965;52.846;6.614;2022-08-19T13:06:50;33.30;49.70
57088;DHT22;42965;52.846;6.614;2022-08-19T13:09:16;33.60;48.50
57088;DHT22;42965;52.846;6.614;2022-08-19T13:11:43;33.90;48.30
57088;DHT22;42965;52.846;6.614;2022-08-19T13:14:10;33.80;47.10
57088;DHT22;42965;52.846;6.614;2022-08-19T13:16:37;33.30;48.80
57088;DHT22;42965;52.846;6.614;2022-08-19T13:19:04;32.60;47.00
57088;DHT22;42965;52.846;6.614;2022-08-19T13:21:31;32.30;48.70
57088;DHT22;42965;52.846;6.614;2022-08-19T13:23:57;32.20;49.70
57088;DHT22;42965;52.846;6.614;2022-08-19T13:26:24;32.10;50.80
57088;DHT22;42965;52.846;6.614;2022-08-19T13:28:50;32.20;51.30
57088;DHT22;42965;52.846;6.614;2022-08-19T13:31:38;32.40;52.00
57088;DHT22;42965;52.846;6.614;2022-08-19T13:34:33;32.10;52.00
57088;DHT22;42965;52.846;6.614;2022-08-19T13:37:01;32.30;48.90
57088;DHT22;42965;52.846;6.614;2022-08-19T13:39:35;32.70;50.80
57088;DHT22;42965;52.846;6.614;2022-08-19T13:42:01;32.60;51.40
57088;DHT22;42965;52.846;6.614;2022-08-19T13:44:29;33.10;52.10
57088;DHT22;42965;52.846;6.614;2022-08-19T13:47:03;33.30;51.30
57088;DHT22;42965;52.846;6.614;2022-08-19T13:49:34;33.10;51.40
57088;DHT22;42965;52.846;6.614;2022-08-19T13:52:02;32.80;50.40
57088;DHT22;42965;52.846;6.614;2022-08-19T13:54:28;32.60;51.90
57088;DHT22;42965;52.846;6.614;2022-08-19T13:56:55;32.50;52.80
57088;DHT22;42965;52.846;6.614;2022-08-19T13:59:21;32.90;51.00
57088;DHT22;42965;52.846;6.614;2022-08-19T14:01:47;32.90;50.80
57088;DHT22;42965;52.846;6.614;2022-08-19T14:04:14;32.40;52.50
57088;DHT22;42965;52.846;6.614;2022-08-19T14:06:47;32.30;53.30
57088;DHT22;42965;52.846;6.614;2022-08-19T14:09:13;31.50;55.10
57088;DHT22;42965;52.846;6.614;2022-08-19T14:11:40;30.70;56.60
57088;DHT22;42965;52.846;6.614;2022-08-19T14:14:06;30.10;60.80
57088;DHT22;42965;52.846;6.614;2022-08-19T14:16:32;29.70;64.10
57088;DHT22;42965;52.846;6.614;2022-08-19T14:18:59;29.40;68.70
57088;DHT22;42965;52.846;6.614;2022-08-19T14:21:25;29.00;74.70
57088;DHT22;42965;52.846;6.614;2022-08-19T14:23:52;28.90;82.20
57088;DHT22;42965;52.846;6.614;2022-08-19T14:26:20;28.70;90.00
57088;DHT22;42965;52.846;6.614;2022-08-19T14:28:46;28.90;93.80
57088;DHT22;42965;52.846;6.614;2022-08-19T14:31:15;29.00;93.50
57088;DHT22;42965;52.846;6.614;2022-08-19T14:33:46;28.90;95.70
57088;DHT22;42965;52.846;6.614;2022-08-19T14:36:13;28.50;94.50
57088;DHT22;42965;52.846;6.614;2022-08-19T14:38:41;28.40;94.20
57088;DHT22;42965;52.846;6.614;2022-08-19T14:41:20;28.10;95.60
57088;DHT22;42965;52.846;6.614;2022-08-19T14:43:48;27.90;98.10
57088;DHT22;42965;52.846;6.614;2022-08-19T14:46:17;27.90;97.50
57088;DHT22;42965;52.846;6.614;2022-08-19T14:48:45;27.80;97.30
57088;DHT22;42965;52.846;6.614;2022-08-19T14:51:12;27.90;97.80
57088;DHT22;42965;52.846;6.614;2022-08-19T14:53:38;28.30;98.20
57088;DHT22;42965;52.846;6.614;2022-08-19T14:56:14;28.90;96.60
57088;DHT22;42965;52.846;6.614;2022-08-19T14:58:41;29.30;95.30
57088;DHT22;42965;52.846;6.614;2022-08-19T15:01:09;28.80;96.50
57088;DHT22;42965;52.846;6.614;2022-08-19T15:03:36;28.70;97.30
57088;DHT22;42965;52.846;6.614;2022-08-19T15:06:04;28.20;99.90
57088;DHT22;42965;52.846;6.614;2022-08-19T15:08:32;28.20;99.90
57088;DHT22;42965;52.846;6.614;2022-08-19T15:11:01;28.20;99.90
57088;DHT22;42965;52.846;6.614;2022-08-19T15:13:28;28.00;99.90
57088;DHT22;42965;52.846;6.614;2022-08-19T15:15:55;27.80;99.90
57088;DHT22;42965;52.846;6.614;2022-08-19T15:18:23;27.80;99.90
57088;DHT22;42965;52.846;6.614;2022-08-19T15:20:50;27.60;99.90
57088;DHT22;42965;52.846;6.614;2022-08-19T15:23:19;27.30;99.90
57088;DHT22;42965;52.846;6.614;2022-08-19T15:25:45;27.00;99.90
57088;DHT22;42965;52.846;6.614;2022-08-19T15:28:12;26.90;99.90
57088;DHT22;42965;52.846;6.614;2022-08-19T15:30:39;26.70;99.90
57088;DHT22;42965;52.846;6.614;2022-08-19T15:33:06;26.60;99.90
57088;DHT22;42965;52.846;6.614;2022-08-19T15:35:32;26.50;99.90
57088;DHT22;42965;52.846;6.614;2022-08-19T15:37:58;26.40;99.90
57088;DHT22;42965;52.846;6.614;2022-08-19T15:40:26;26.40;99.90
57088;DHT22;42965;52.846;6.614;2022-08-19T15:42:53;26.50;99.90
57088;DHT22;42965;52.846;6.614;2022-08-19T15:45:21;26.60;99.90
57088;DHT22;42965;52.846;6.614;2022-08-19T15:47:48;26.60;99.90
57088;DHT22;42965;52.846;6.614;2022-08-19T15:50:26;26.80;99.90
57088;DHT22;42965;52.846;6.614;2022-08-19T15:53:20;26.80;99.90
57088;DHT22;42965;52.846;6.614;2022-08-19T15:56:07;26.80;99.90
57088;DHT22;42965;52.846;6.614;2022-08-19T15:58:42;26.80;99.90
57088;DHT22;42965;52.846;6.614;2022-08-19T16:01:28;26.60;99.90
57088;DHT22;42965;52.846;6.614;2022-08-19T16:03:58;26.20;99.90
57088;DHT22;42965;52.846;6.614;2022-08-19T16:06:55;26.30;99.90
57088;DHT22;42965;52.846;6.614;2022-08-19T16:09:24;26.00;99.90
57088;DHT22;42965;52.846;6.614;2022-08-19T16:11:50;25.90;99.90
57088;DHT22;42965;52.846;6.614;2022-08-19T16:14:18;25.90;99.90
57088;DHT22;42965;52.846;6.614;2022-08-19T16:16:46;25.80;99.90
57088;DHT22;42965;52.846;6.614;2022-08-19T16:19:14;25.70;99.90
57088;DHT22;42965;52.846;6.614;2022-08-19T16:21:50;25.70;99.90
57088;DHT22;42965;52.846;6.614;2022-08-19T16:24:20;25.50;99.90
57088;DHT22;42965;52.846;6.614;2022-08-19T16:26:47;25.30;99.90
57088;DHT22;42965;52.846;6.614;2022-08-19T16:29:17;25.30;99.90
57088;DHT22;42965;52.846;6.614;2022-08-19T16:31:45;25.20;99.90
57088;DHT22;42965;52.846;6.614;2022-08-19T16:34:12;25.10;99.90
57088;DHT22;42965;52.846;6.614;2022-08-19T16:36:39;25.20;99.90
57088;DHT22;42965;52.846;6.614;2022-08-19T16:39:09;25.10;99.90
57088;DHT22;42965;52.846;6.614;2022-08-19T16:41:35;25.10;99.90
57088;DHT22;42965;52.846;6.614;2022-08-19T16:44:04;25.10;99.90
57088;DHT22;42965;52.846;6.614;2022-08-19T16:46:30;25.10;99.90
57088;DHT22;42965;52.846;6.614;2022-08-19T16:48:59;25.00;99.90
57088;DHT22;42965;52.846;6.614;2022-08-19T16:51:25;24.90;99.90
57088;DHT22;42965;52.846;6.614;2022-08-19T16:53:51;24.90;99.90
57088;DHT22;42965;52.846;6.614;2022-08-19T16:56:18;24.90;99.90
57088;DHT22;42965;52.846;6.614;2022-08-19T16:58:46;24.80;99.90
57088;DHT22;42965;52.846;6.614;2022-08-19T17:01:16;24.90;99.90
57088;DHT22;42965;52.846;6.614;2022-08-19T17:03:42;24.80;99.90
57088;DHT22;42965;52.846;6.614;2022-08-19T17:06:14;24.80;99.90
57088;DHT22;42965;52.846;6.614;2022-08-19T17:08:42;24.80;99.90
57088;DHT22;42965;52.846;6.614;2022-08-19T17:11:08;24.70;99.90
57088;DHT22;42965;52.846;6.614;2022-08-19T17:13:35;24.60;99.90
57088;DHT22;42965;52.846;6.614;2022-08-19T17:16:01;24.50;99.90
57088;DHT22;42965;52.846;6.614;2022-08-19T17:18:27;24.40;99.90
57088;DHT22;42965;52.846;6.614;2022-08-19T17:20:56;24.30;99.90
57088;DHT22;42965;52.846;6.614;2022-08-19T17:23:22;24.20;99.90
57088;DHT22;42965;52.846;6.614;2022-08-19T17:25:49;24.10;99.90
57088;DHT22;42965;52.846;6.614;2022-08-19T17:28:19;24.00;99.90
57088;DHT22;42965;52.846;6.614;2022-08-19T17:30:45;23.90;99.90
57088;DHT22;42965;52.846;6.614;2022-08-19T17:33:12;23.70;99.90
57088;DHT22;42965;52.846;6.614;2022-08-19T17:35:38;23.40;99.90
57088;DHT22;42965;52.846;6.614;2022-08-19T17:38:11;23.10;99.90
57088;DHT22;42965;52.846;6.614;2022-08-19T17:40:38;23.00;99.90
57088;DHT22;42965;52.846;6.614;2022-08-19T17:43:08;22.90;99.90
57088;DHT22;42965;52.846;6.614;2022-08-19T17:45:36;22.80;99.90
57088;DHT22;42965;52.846;6.614;2022-08-19T17:48:03;22.60;99.90
57088;DHT22;42965;52.846;6.614;2022-08-19T17:50:30;22.60;99.90
57088;DHT22;42965;52.846;6.614;2022-08-19T17:52:57;22.60;99.90
57088;DHT22;42965;52.846;6.614;2022-08-19T17:55:23;22.60;99.90
57088;DHT22;42965;52.846;6.614;2022-08-19T17:57:54;22.50;99.90
57088;DHT22;42965;52.846;6.614;2022-08-19T18:00:21;22.40;99.90
57088;DHT22;42965;52.846;6.614;2022-08-19T18:02:50;22.40;99.90
57088;DHT22;42965;52.846;6.614;2022-08-19T18:05:18;22.30;99.90
57088;DHT22;42965;52.846;6.614;2022-08-19T18:07:45;22.30;99.90
57088;DHT22;42965;52.846;6.614;2022-08-19T18:10:12;22.20;99.90
57088;DHT22;42965;52.846;6.614;2022-08-19T18:12:38;22.20;99.90
57088;DHT22;42965;52.846;6.614;2022-08-19T18:15:07;22.20;99.90
57088;DHT22;42965;52.846;6.614;2022-08-19T18:17:33;22.10;99.90
57088;DHT22;42965;52.846;6.614;2022-08-19T18:20:06;22.00;99.90
57088;DHT22;42965;52.846;6.614;2022-08-19T18:22:43;22.00;99.90
57088;DHT22;42965;52.846;6.614;2022-08-19T18:25:14;22.00;99.90
57088;DHT22;42965;52.846;6.614;2022-08-19T18:27:43;21.90;99.90
57088;DHT22;42965;52.846;6.614;2022-08-19T18:30:09;21.70;99.90
57088;DHT22;42965;52.846;6.614;2022-08-19T18:32:38;21.60;99.90
57088;DHT22;42965;52.846;6.614;2022-08-19T18:35:09;21.50;99.90
57088;DHT22;42965;52.846;6.614;2022-08-19T18:37:43;21.50;99.90
57088;DHT22;42965;52.846;6.614;2022-08-19T18:40:14;21.50;99.90
57088;DHT22;42965;52.846;6.614;2022-08-19T18:42:59;21.30;99.90
57088;DHT22;42965;52.846;6.614;2022-08-19T18:45:38;21.20;99.90
57088;DHT22;42965;52.846;6.614;2022-08-19T18:48:24;21.10;99.90
57088;DHT22;42965;52.846;6.614;2022-08-19T18:51:11;21.10;99.90
57088;DHT22;42965;52.846;6.614;2022-08-19T18:53:39;21.20;99.90
57088;DHT22;42965;52.846;6.614;2022-08-19T18:56:07;21.20;99.90
57088;DHT22;42965;52.846;6.614;2022-08-19T18:58:36;21.20;99.90
57088;DHT22;42965;52.846;6.614;2022-08-19T19:01:12;21.10;99.90
57088;DHT22;42965;52.846;6.614;2022-08-19T19:03:41;21.10;99.90
57088;DHT22;42965;52.846;6.614;2022-08-19T19:06:12;21.00;99.90
57088;DHT22;42965;52.846;6.614;2022-08-19T19:08:38;21.00;99.90
57088;DHT22;42965;52.846;6.614;2022-08-19T19:11:07;20.90;99.90
57088;DHT22;42965;52.846;6.614;2022-08-19T19:13:34;20.90;99.90
57088;DHT22;42965;52.846;6.614;2022-08-19T19:16:01;20.90;99.90
57088;DHT22;42965;52.846;6.614;2022-08-19T19:18:28;20.90;99.90
57088;DHT22;42965;52.846;6.614;2022-08-19T19:20:55;20.70;99.90
57088;DHT22;42965;52.846;6.614;2022-08-19T19:23:26;20.60;99.90
57088;DHT22;42965;52.846;6.614;2022-08-19T19:25:53;20.50;99.90
57088;DHT22;42965;52.846;6.614;2022-08-19T19:28:20;20.40;99.90
57088;DHT22;42965;52.846;6.614;2022-08-19T19:30:51;20.40;99.90
57088;DHT22;42965;52.846;6.614;2022-08-19T19:33:18;20.40;99.90
57088;DHT22;42965;52.846;6.614;2022-08-19T19:35:45;20.40;99.90
57088;DHT22;42965;52.846;6.614;2022-08-19T19:38:12;20.30;99.90
57088;DHT22;42965;52.846;6.614;2022-08-19T19:40:38;20.40;99.90
57088;DHT22;42965;52.846;6.614;2022-08-19T19:43:04;20.40;99.90
57088;DHT22;42965;52.846;6.614;2022-08-19T19:45:31;20.30;99.90
57088;DHT22;42965;52.846;6.614;2022-08-19T19:47:58;20.30;99.90
57088;DHT22;42965;52.846;6.614;2022-08-19T19:50:25;20.30;99.90
57088;DHT22;42965;52.846;6.614;2022-08-19T19:52:55;20.30;99.90
57088;DHT22;42965;52.846;6.614;2022-08-19T19:55:21;20.20;99.90
57088;DHT22;42965;52.846;6.614;2022-08-19T19:57:51;20.20;99.90
57088;DHT22;42965;52.846;6.614;2022-08-19T20:00:22;20.20;99.90
57088;DHT22;42965;52.846;6.614;2022-08-19T20:02:50;20.30;99.90
57088;DHT22;42965;52.846;6.614;2022-08-19T20:05:19;20.20;99.90
57088;DHT22;42965;52.846;6.614;2022-08-19T20:07:50;20.20;99.90
57088;DHT22;42965;52.846;6.614;2022-08-19T20:10:35;20.20;99.90
57088;DHT22;42965;52.846;6.614;2022-08-19T20:13:03;20.20;99.90
57088;DHT22;42965;52.846;6.614;2022-08-19T20:15:30;20.20;99.90
57088;DHT22;42965;52.846;6.614;2022-08-19T20:17:58;20.20;99.90
57088;DHT22;42965;52.846;6.614;2022-08-19T20:20:24;20.20;99.90
57088;DHT22;42965;52.846;6.614;2022-08-19T20:22:50;20.10;99.90
57088;DHT22;42965;52.846;6.614;2022-08-19T20:25:19;20.10;99.90
57088;DHT22;42965;52.846;6.614;2022-08-19T20:27:45;20.10;99.90
57088;DHT22;42965;52.846;6.614;2022-08-19T20:30:14;20.10;99.90
57088;DHT22;42965;52.846;6.614;2022-08-19T20:32:41;20.20;99.90
57088;DHT22;42965;52.846;6.614;2022-08-19T20:35:09;20.20;99.90
57088;DHT22;42965;52.846;6.614;2022-08-19T20:37:36;20.20;99.90
57088;DHT22;42965;52.846;6.614;2022-08-19T20:40:04;20.30;99.90
57088;DHT22;42965;52.846;6.614;2022-08-19T20:42:31;20.20;99.90
57088;DHT22;42965;52.846;6.614;2022-08-19T20:44:58;20.20;99.90
57088;DHT22;42965;52.846;6.614;2022-08-19T20:47:26;20.20;99.90
57088;DHT22;42965;52.846;6.614;2022-08-19T20:49:54;20.20;99.90
57088;DHT22;42965;52.846;6.614;2022-08-19T20:52:20;20.30;99.90
57088;DHT22;42965;52.846;6.614;2022-08-19T20:54:46;20.30;99.90
57088;DHT22;42965;52.846;6.614;2022-08-19T20:57:13;20.20;99.90
57088;DHT22;42965;52.846;6.614;2022-08-19T20:59:39;20.30;99.90
57088;DHT22;42965;52.846;6.614;2022-08-19T21:02:05;20.30;99.90
57088;DHT22;42965;52.846;6.614;2022-08-19T21:04:32;20.30;99.90
57088;DHT22;42965;52.846;6.614;2022-08-19T21:06:58;20.30;99.90
57088;DHT22;42965;52.846;6.614;2022-08-19T21:09:24;20.30;99.90
57088;DHT22;42965;52.846;6.614;2022-08-19T21:11:54;20.20;99.90
57088;DHT22;42965;52.846;6.614;2022-08-19T21:14:20;20.20;99.90
57088;DHT22;42965;52.846;6.614;2022-08-19T21:16:47;20.20;99.90
57088;DHT22;42965;52.846;6.614;2022-08-19T21:19:15;20.20;99.90
57088;DHT22;42965;52.846;6.614;2022-08-19T21:21:42;20.30;99.90
57088;DHT22;42965;52.846;6.614;2022-08-19T21:24:09;20.30;99.90
57088;DHT22;42965;52.846;6.614;2022-08-19T21:26:35;20.30;99.90
57088;DHT22;42965;52.846;6.614;2022-08-19T21:29:02;20.30;99.90
57088;DHT22;42965;52.846;6.614;2022-08-19T21:31:32;20.30;99.90
57088;DHT22;42965;52.846;6.614;2022-08-19T21:34:04;20.30;99.90
57088;DHT22;42965;52.846;6.614;2022-08-19T21:36:30;20.30;99.90
57088;DHT22;42965;52.846;6.614;2022-08-19T21:38:56;20.30;99.90
57088;DHT22;42965;52.846;6.614;2022-08-19T21:41:26;20.30;99.90
57088;DHT22;42965;52.846;6.614;2022-08-19T21:43:52;20.20;99.90
57088;DHT22;42965;52.846;6.614;2022-08-19T21:46:18;20.20;99.90
57088;DHT22;42965;52.846;6.614;2022-08-19T21:48:47;20.10;99.90
57088;DHT22;42965;52.846;6.614;2022-08-19T21:51:14;20.10;99.90
57088;DHT22;42965;52.846;6.614;2022-08-19T21:53:40;20.10;99.90
57088;DHT22;42965;52.846;6.614;2022-08-19T21:56:10;20.10;99.90
57088;DHT22;42965;52.846;6.614;2022-08-19T21:58:37;20.00;99.90
57088;DHT22;42965;52.846;6.614;2022-08-19T22:01:04;20.00;99.90
57088;DHT22;42965;52.846;6.614;2022-08-19T22:03:37;19.90;99.90
57088;DHT22;42965;52.846;6.614;2022-08-19T22:06:04;20.00;99.90
57088;DHT22;42965;52.846;6.614;2022-08-19T22:08:30;19.90;99.90
57088;DHT22;42965;52.846;6.614;2022-08-19T22:10:57;19.90;99.90
57088;DHT22;42965;52.846;6.614;2022-08-19T22:13:25;19.90;99.90
57088;DHT22;42965;52.846;6.614;2022-08-19T22:15:52;19.90;99.90
57088;DHT22;42965;52.846;6.614;2022-08-19T22:18:20;19.90;99.90
57088;DHT22;42965;52.846;6.614;2022-08-19T22:20:46;19.90;99.90
57088;DHT22;42965;52.846;6.614;2022-08-19T22:23:12;19.90;99.90
57088;DHT22;42965;52.846;6.614;2022-08-19T22:25:42;19.90;99.90
57088;DHT22;42965;52.846;6.614;2022-08-19T22:28:13;19.90;99.90
57088;DHT22;42965;52.846;6.614;2022-08-19T22:30:43;19.90;99.90
57088;DHT22;42965;52.846;6.614;2022-08-19T22:33:15;19.90;99.90
57088;DHT22;42965;52.846;6.614;2022-08-19T22:35:43;19.80;99.90
57088;DHT22;42965;52.846;6.614;2022-08-19T22:38:11;19.80;99.90
57088;DHT22;42965;52.846;6.614;2022-08-19T22:40:40;19.80;99.90
57088;DHT22;42965;52.846;6.614;2022-08-19T22:43:09;19.70;99.90
57088;DHT22;42965;52.846;6.614;2022-08-19T22:45:37;19.80;99.90
57088;DHT22;42965;52.846;6.614;2022-08-19T22:48:06;19.70;99.90
57088;DHT22;42965;52.846;6.614;2022-08-19T22:50:33;19.80;99.90
57088;DHT22;42965;52.846;6.614;2022-08-19T22:53:01;19.70;99.90
57088;DHT22;42965;52.846;6.614;2022-08-19T22:55:29;19.80;99.90
57088;DHT22;42965;52.846;6.614;2022-08-19T22:57:56;19.70;99.90
57088;DHT22;42965;52.846;6.614;2022-08-19T23:00:24;19.70;99.90
57088;DHT22;42965;52.846;6.614;2022-08-19T23:02:52;19.70;99.90
57088;DHT22;42965;52.846;6.614;2022-08-19T23:05:21;19.70;99.90
57088;DHT22;42965;52.846;6.614;2022-08-19T23:07:48;19.70;99.90
57088;DHT22;42965;52.846;6.614;2022-08-19T23:10:15;19.60;99.90
57088;DHT22;42965;52.846;6.614;2022-08-19T23:12:43;19.60;99.90
57088;DHT22;42965;52.846;6.614;2022-08-19T23:15:24;19.60;99.90
57088;DHT22;42965;52.846;6.614;2022-08-19T23:17:52;19.60;99.90
57088;DHT22;42965;52.846;6.614;2022-08-19T23:20:20;19.50;99.90
57088;DHT22;42965;52.846;6.614;2022-08-19T23:22:48;19.50;99.90
57088;DHT22;42965;52.846;6.614;2022-08-19T23:25:20;19.40;99.90
57088;DHT22;42965;52.846;6.614;2022-08-19T23:27:47;19.40;99.90
57088;DHT22;42965;52.846;6.614;2022-08-19T23:30:35;19.40;99.90
57088;DHT22;42965;52.846;6.614;2022-08-19T23:33:06;19.40;99.90